East Freetown, New York
Current Conditions -  °F | °C
As of 3:55 AM on Monday 24 Nov 2014 (Local Time) from KN03 Reporting Station
Heavy Rain Heavy Rain  
Wind Chill: 42°   Ceiling: 2900
Heat Index: 48°   Visibility: 5mi
Dew Point: 46°   Wind: 15mph
Humidity: 93%   Direction: 140°SE
Pressure: 29.54"   Gusts: 24mph
Location:  42.5415°N, 75.9009°W
Report Text: KN03 240855Z AUTO 14013G21KT 5SM +RA SCT011 BKN029 OVC070 09/08 A2954 RMK AO2
Loading
Personal Weather Stations






























Interactive Weather Map New forecast layout! Learn more

10-Day Weather Forecast

Advertisements
Track Severe Weather on mobile